createdAt,value
2023-04-15T00:01:52.380Z,6.07
2023-04-15T00:04:19.301Z,4.97
2023-04-15T00:06:54.697Z,5.82
2023-04-15T00:09:21.664Z,6.50
2023-04-15T00:11:48.992Z,6.28
2023-04-15T00:14:15.855Z,5.15
2023-04-15T00:16:42.958Z,4.65
2023-04-15T00:19:09.824Z,6.57
2023-04-15T00:21:37.137Z,7.15
2023-04-15T00:24:04.133Z,9.00
2023-04-15T00:26:31.024Z,8.63
2023-04-15T00:28:58.447Z,5.63
2023-04-15T00:31:25.753Z,6.75
2023-04-15T00:33:53.342Z,7.95
2023-04-15T00:36:20.180Z,6.55
2023-04-15T00:38:47.233Z,4.65
2023-04-15T00:41:14.472Z,5.53
2023-04-15T00:43:41.427Z,3.72
2023-04-15T00:46:09.512Z,7.15
2023-04-15T00:48:36.987Z,7.10
2023-04-15T00:51:04.039Z,12.18
2023-04-15T00:53:30.910Z,9.40
2023-04-15T00:55:57.831Z,4.90
2023-04-15T00:58:25.074Z,7.90
2023-04-15T01:00:54.497Z,6.38
2023-04-15T01:03:21.645Z,8.85
2023-04-15T01:05:49.239Z,9.00
2023-04-15T01:08:16.229Z,14.63
2023-04-15T01:10:43.040Z,8.63
2023-04-15T01:13:10.130Z,7.88
2023-04-15T01:15:37.271Z,6.05
2023-04-15T01:18:04.318Z,9.95
2023-04-15T01:20:31.377Z,15.70
2023-04-15T01:22:59.040Z,6.78
2023-04-15T01:25:35.032Z,8.52
2023-04-15T01:28:02.235Z,12.73
2023-04-15T01:30:29.208Z,8.23
2023-04-15T01:32:56.112Z,8.70
2023-04-15T01:35:24.003Z,5.88
2023-04-15T01:37:51.243Z,8.65
2023-04-15T01:40:18.107Z,10.13
2023-04-15T01:42:44.941Z,6.40
2023-04-15T01:45:13.363Z,7.13
2023-04-15T01:47:40.436Z,6.22
2023-04-15T01:50:08.473Z,8.85
2023-04-15T01:52:35.523Z,7.50
2023-04-15T01:55:02.524Z,7.65
2023-04-15T01:57:29.419Z,8.07
2023-04-15T01:59:56.676Z,8.70
2023-04-15T02:02:23.594Z,5.45
2023-04-15T02:04:50.516Z,5.78
2023-04-15T02:07:17.619Z,7.88
2023-04-15T02:09:46.084Z,6.05
2023-04-15T02:12:13.539Z,7.32
2023-04-15T02:14:40.357Z,7.95
2023-04-15T02:17:08.396Z,9.52
2023-04-15T02:19:35.816Z,12.35
2023-04-15T02:22:02.716Z,6.93
2023-04-15T02:24:30.777Z,5.95
2023-04-15T02:26:57.765Z,9.70
2023-04-15T02:29:24.893Z,10.82
2023-04-15T02:31:51.967Z,10.55
2023-04-15T02:34:18.870Z,13.90
2023-04-15T02:36:47.514Z,6.63
2023-04-15T02:39:16.823Z,6.18
2023-04-15T02:41:43.990Z,8.35
2023-04-15T02:44:12.976Z,8.55
2023-04-15T02:46:41.286Z,12.50
2023-04-15T02:49:08.611Z,6.88
2023-04-15T02:51:35.535Z,8.27
2023-04-15T02:54:02.353Z,6.90
2023-04-15T02:56:30.234Z,10.77
2023-04-15T02:58:57.434Z,8.45
2023-04-15T03:01:24.329Z,8.95
2023-04-15T03:03:51.238Z,10.85
2023-04-15T03:06:18.253Z,7.15
2023-04-15T03:08:45.670Z,6.78
2023-04-15T03:11:12.816Z,7.85
2023-04-15T03:13:41.792Z,6.45
2023-04-15T03:16:09.197Z,9.55
2023-04-15T03:18:36.316Z,7.57
2023-04-15T03:21:03.400Z,8.02
2023-04-15T03:23:31.451Z,7.03
2023-04-15T03:25:59.833Z,11.15
2023-04-15T03:28:26.657Z,9.48
2023-04-15T03:30:53.475Z,11.98
2023-04-15T03:33:20.435Z,10.68
2023-04-15T03:35:47.380Z,9.45
2023-04-15T03:38:14.229Z,8.23
2023-04-15T03:40:41.664Z,10.55
2023-04-15T03:43:08.427Z,11.35
2023-04-15T03:45:35.701Z,11.23
2023-04-15T03:50:32.171Z,10.15
2023-04-15T03:52:58.953Z,11.30
2023-04-15T03:55:25.782Z,9.65
2023-04-15T03:57:52.597Z,11.32
2023-04-15T04:00:19.765Z,10.90
2023-04-15T04:02:46.669Z,12.18
2023-04-15T04:05:13.554Z,11.77
2023-04-15T04:07:40.559Z,9.07
2023-04-15T04:10:07.875Z,9.52
2023-04-15T04:12:34.626Z,12.82
2023-04-15T04:15:01.733Z,15.40
2023-04-15T04:17:28.582Z,8.45
2023-04-15T04:19:55.597Z,11.05
2023-04-15T04:22:24.269Z,11.57
2023-04-15T04:24:51.389Z,10.13
2023-04-15T04:27:18.196Z,11.65
2023-04-15T04:29:47.516Z,13.75
2023-04-15T04:32:15.408Z,11.05
2023-04-15T04:34:42.225Z,8.52
2023-04-15T04:37:09.004Z,14.95
2023-04-15T04:39:35.953Z,9.93
2023-04-15T04:42:02.911Z,12.98
2023-04-15T04:44:29.820Z,11.45
2023-04-15T04:46:56.589Z,12.93
2023-04-15T04:49:23.405Z,13.57
2023-04-15T04:51:50.238Z,14.27
2023-04-15T04:54:17.655Z,12.48
2023-04-15T04:56:44.504Z,14.38
2023-04-15T04:59:11.298Z,11.30
2023-04-15T05:01:38.287Z,12.63
2023-04-15T05:04:06.139Z,13.05
2023-04-15T05:06:33.196Z,16.67
2023-04-15T05:09:01.301Z,13.88
2023-04-15T05:11:28.374Z,13.80
2023-04-15T05:13:55.396Z,12.00
2023-04-15T05:16:22.286Z,15.45
2023-04-15T05:18:49.216Z,14.85
2023-04-15T05:21:16.473Z,12.98
2023-04-15T05:23:43.327Z,9.80
2023-04-15T05:26:10.081Z,18.75
2023-04-15T05:28:38.347Z,13.70
2023-04-15T05:31:05.537Z,16.80
2023-04-15T05:33:32.444Z,14.23
2023-04-15T05:35:59.236Z,18.60
2023-04-15T05:38:26.235Z,15.40
2023-04-15T05:40:53.090Z,14.20
2023-04-15T05:43:19.982Z,18.00
2023-04-15T05:45:46.840Z,15.40
2023-04-15T05:48:13.813Z,15.05
2023-04-15T05:50:43.922Z,12.52
2023-04-15T05:53:11.722Z,16.52
2023-04-15T05:55:38.693Z,16.98
2023-04-15T05:58:05.681Z,13.63
2023-04-15T06:00:32.947Z,15.35
2023-04-15T06:03:00.114Z,17.02
2023-04-15T06:05:27.865Z,13.98
2023-04-15T06:07:54.646Z,14.45
2023-04-15T06:10:21.522Z,16.10
2023-04-15T06:12:48.393Z,16.20
2023-04-15T06:15:15.372Z,16.60
2023-04-15T06:17:42.268Z,19.17
2023-04-15T06:20:09.716Z,18.73
2023-04-15T06:22:39.194Z,13.70
2023-04-15T06:25:08.185Z,16.30
2023-04-15T06:27:35.430Z,16.55
2023-04-15T06:30:02.496Z,18.77
2023-04-15T06:32:29.448Z,18.55
2023-04-15T06:34:56.313Z,12.20
2023-04-15T06:37:23.250Z,10.55
2023-04-15T06:39:50.093Z,14.43
2023-04-15T06:42:16.974Z,13.88
2023-04-15T06:44:43.903Z,15.40
2023-04-15T06:47:13.056Z,12.18
2023-04-15T06:49:40.511Z,11.35
2023-04-15T06:52:07.396Z,12.57
2023-04-15T06:54:34.242Z,13.00
2023-04-15T06:57:01.249Z,13.95
2023-04-15T06:59:28.052Z,11.30
2023-04-15T07:01:54.961Z,10.23
2023-04-15T07:04:22.072Z,9.57
2023-04-15T07:06:48.953Z,10.30
2023-04-15T07:09:15.746Z,10.30
2023-04-15T07:11:42.636Z,12.90
2023-04-15T07:14:09.405Z,9.93
2023-04-15T07:16:36.774Z,10.32
2023-04-15T07:19:04.224Z,8.50
2023-04-15T07:21:31.474Z,8.60
2023-04-15T07:23:58.820Z,7.78
2023-04-15T07:26:25.642Z,8.77
2023-04-15T07:28:52.464Z,15.55
2023-04-15T07:31:19.375Z,9.30
2023-04-15T07:33:46.267Z,7.95
2023-04-15T07:36:13.281Z,8.07
2023-04-15T07:38:40.414Z,8.05
2023-04-15T07:41:07.417Z,7.45
2023-04-15T07:43:34.252Z,9.75
2023-04-15T07:46:01.386Z,5.63
2023-04-15T07:48:28.268Z,6.15
2023-04-15T07:50:55.068Z,5.07
2023-04-15T07:53:22.216Z,7.60
2023-04-15T07:55:49.089Z,9.25
2023-04-15T07:58:16.325Z,5.35
2023-04-15T08:00:43.151Z,5.20
2023-04-15T08:03:10.130Z,6.05
2023-04-15T08:05:37.071Z,7.57
2023-04-15T08:08:04.037Z,6.22
2023-04-15T08:10:30.903Z,8.18
2023-04-15T08:12:57.920Z,6.22
2023-04-15T08:15:24.955Z,4.55
2023-04-15T08:17:52.030Z,4.18
2023-04-15T08:20:20.717Z,5.28
2023-04-15T08:22:51.871Z,8.43
2023-04-15T08:25:19.900Z,7.53
2023-04-15T08:27:46.749Z,6.05
2023-04-15T08:30:14.223Z,4.00
2023-04-15T08:32:45.396Z,3.42
2023-04-15T08:35:12.457Z,4.60
2023-04-15T08:37:39.260Z,6.20
2023-04-15T08:40:06.867Z,2.47
2023-04-15T08:42:45.189Z,4.13
2023-04-15T08:45:12.200Z,6.85
2023-04-15T08:47:40.450Z,3.97
2023-04-15T08:50:09.880Z,5.47
2023-04-15T08:52:37.986Z,4.35
2023-04-15T08:55:06.058Z,4.38
2023-04-15T08:57:33.723Z,4.43
2023-04-15T09:00:05.369Z,4.63
2023-04-15T09:02:32.682Z,2.85
2023-04-15T09:04:59.717Z,3.33
2023-04-15T09:07:27.075Z,5.63
2023-04-15T09:09:54.207Z,3.60
2023-04-15T09:12:21.830Z,2.00
2023-04-15T09:14:49.489Z,2.28
2023-04-15T09:17:20.586Z,3.00
2023-04-15T09:19:47.628Z,3.63
2023-04-15T09:22:15.192Z,3.05
2023-04-15T09:24:43.409Z,4.28
2023-04-15T09:27:11.339Z,2.30
2023-04-15T09:29:38.409Z,4.57
2023-04-15T09:32:15.578Z,2.88
2023-04-15T09:34:43.240Z,6.63
2023-04-15T09:37:11.273Z,4.32
2023-04-15T09:39:52.337Z,2.90
2023-04-15T09:42:24.476Z,4.07
2023-04-15T09:44:53.150Z,8.25
2023-04-15T09:47:31.807Z,1.58
2023-04-15T09:50:00.428Z,9.88
2023-04-15T09:52:28.814Z,4.43
2023-04-15T09:54:58.702Z,3.20
2023-04-15T09:57:25.799Z,4.63
2023-04-15T09:59:52.929Z,4.93
2023-04-15T10:02:21.389Z,2.70
2023-04-15T10:04:49.772Z,1.98
2023-04-15T10:07:20.669Z,2.25
2023-04-15T10:09:49.215Z,2.88
2023-04-15T10:12:19.616Z,4.78
2023-04-15T10:14:53.444Z,3.22
2023-04-15T10:17:23.007Z,3.83
2023-04-15T10:19:52.972Z,3.00
2023-04-15T10:22:20.552Z,10.55
2023-04-15T10:24:49.041Z,26.88
2023-04-15T10:27:17.998Z,2.58
2023-04-15T10:29:45.648Z,3.45
2023-04-15T10:32:13.727Z,4.78
2023-04-15T10:34:40.972Z,6.63
2023-04-15T10:37:11.620Z,4.20
2023-04-15T10:39:41.065Z,2.35
2023-04-15T10:42:13.935Z,4.78
2023-04-15T10:44:49.025Z,2.67
2023-04-15T10:47:21.362Z,6.43
2023-04-15T10:49:58.030Z,3.45
2023-04-15T10:52:27.613Z,6.32
2023-04-15T10:55:13.254Z,4.32
2023-04-15T10:57:41.120Z,5.72
2023-04-15T11:00:14.925Z,4.13
2023-04-15T11:02:49.517Z,3.72
2023-04-15T11:05:17.959Z,1.95
2023-04-15T11:07:46.695Z,3.63
2023-04-15T11:10:26.178Z,2.05
2023-04-15T11:12:54.057Z,2.17
2023-04-15T11:15:34.350Z,3.28
2023-04-15T11:18:17.897Z,2.15
2023-04-15T11:20:47.710Z,6.00
2023-04-15T11:23:37.831Z,2.00
2023-04-15T11:26:09.422Z,2.08
2023-04-15T11:28:38.818Z,3.35
2023-04-15T11:31:27.836Z,0.98
2023-04-15T11:33:59.950Z,2.20
2023-04-15T11:36:28.236Z,2.20
2023-04-15T11:38:56.009Z,4.20
2023-04-15T11:41:23.764Z,1.38
2023-04-15T11:43:51.209Z,1.73
2023-04-15T11:46:18.991Z,3.67
2023-04-15T11:48:47.274Z,1.27
2023-04-15T11:51:14.781Z,2.10
2023-04-15T11:53:47.228Z,2.33
2023-04-15T11:56:19.385Z,1.98
2023-04-15T11:58:46.740Z,0.93
2023-04-15T12:01:13.880Z,2.55
2023-04-15T12:03:45.004Z,1.75
2023-04-15T12:06:19.387Z,3.80
2023-04-15T12:11:40.697Z,1.88
2023-04-15T12:14:11.052Z,7.22
2023-04-15T12:16:48.377Z,2.35
2023-04-15T12:19:19.704Z,2.65
2023-04-15T12:21:48.632Z,1.48
2023-04-15T12:24:19.769Z,1.42
2023-04-15T12:26:52.545Z,4.10
2023-04-15T12:29:20.135Z,3.78
2023-04-15T12:32:05.171Z,7.78
2023-04-15T12:34:34.760Z,3.72
2023-04-15T12:37:04.348Z,2.05
2023-04-15T12:39:34.952Z,2.47
2023-04-15T12:42:01.898Z,1.25
2023-04-15T12:44:29.412Z,3.97
2023-04-15T12:46:56.843Z,5.68
2023-04-15T12:49:24.642Z,9.77
2023-04-15T12:51:54.793Z,1.52
2023-04-15T12:54:22.384Z,4.70
2023-04-15T12:56:50.742Z,0.50
2023-04-15T12:59:18.728Z,1.80
2023-04-15T13:01:46.651Z,2.03
2023-04-15T13:04:14.140Z,2.17
2023-04-15T13:06:41.090Z,3.75
2023-04-15T13:09:07.932Z,4.55
2023-04-15T13:11:34.934Z,2.83
2023-04-15T13:14:06.751Z,2.75
2023-04-15T13:16:34.506Z,3.42
2023-04-15T13:19:02.693Z,2.85
2023-04-15T13:21:29.770Z,4.53
2023-04-15T13:23:56.741Z,4.88
2023-04-15T13:26:23.626Z,3.83
2023-04-15T13:28:50.487Z,4.15
2023-04-15T13:31:17.349Z,4.93
2023-04-15T13:33:44.523Z,3.92
2023-04-15T13:36:11.368Z,4.35
2023-04-15T13:38:38.234Z,4.35
2023-04-15T13:41:05.128Z,2.42
2023-04-15T13:43:34.225Z,7.85
2023-04-15T13:46:01.658Z,3.65
2023-04-15T13:48:29.067Z,1.65
2023-04-15T13:50:55.960Z,3.20
2023-04-15T13:53:34.002Z,1.92
2023-04-15T13:56:09.151Z,4.53
2023-04-15T13:58:40.297Z,5.28
2023-04-15T14:01:07.555Z,2.85
2023-04-15T14:03:38.013Z,6.85
2023-04-15T14:06:06.367Z,0.60
2023-04-15T14:08:33.603Z,8.80
2023-04-15T14:11:00.832Z,2.25
2023-04-15T14:13:27.712Z,11.43
2023-04-15T14:15:54.670Z,5.75
2023-04-15T14:18:21.513Z,2.30
2023-04-15T14:20:48.348Z,4.00
2023-04-15T14:23:15.180Z,4.57
2023-04-15T14:25:42.270Z,7.47
2023-04-15T14:28:09.362Z,4.32
2023-04-15T14:30:36.416Z,6.43
2023-04-15T14:33:03.958Z,5.57
2023-04-15T14:35:31.194Z,10.45
2023-04-15T14:37:58.095Z,8.43
2023-04-15T14:40:25.068Z,7.95
2023-04-15T14:42:52.047Z,12.20
2023-04-15T14:45:19.199Z,5.32
2023-04-15T14:47:46.727Z,6.45
2023-04-15T14:50:13.623Z,7.45
2023-04-15T14:52:40.500Z,8.07
2023-04-15T14:55:11.982Z,3.05
2023-04-15T14:57:40.059Z,2.45
2023-04-15T15:00:08.511Z,6.72
2023-04-15T15:02:39.677Z,6.57
2023-04-15T15:05:07.893Z,13.63
2023-04-15T15:07:36.859Z,3.58
2023-04-15T15:10:04.166Z,3.00
2023-04-15T15:12:31.037Z,10.63
2023-04-15T15:14:57.827Z,6.18
2023-04-15T15:17:24.970Z,6.18
2023-04-15T15:19:51.840Z,4.18
2023-04-15T15:22:20.871Z,8.40
2023-04-15T15:24:48.323Z,4.60
2023-04-15T15:27:15.178Z,3.78
2023-04-15T15:29:41.998Z,10.75
2023-04-15T15:32:08.818Z,7.15
2023-04-15T15:34:35.990Z,5.97
2023-04-15T15:37:02.839Z,7.80
2023-04-15T15:39:29.702Z,2.28
2023-04-15T15:41:56.631Z,14.55
2023-04-15T15:44:23.476Z,15.50
2023-04-15T15:46:51.183Z,10.38
2023-04-15T15:49:18.322Z,4.47
2023-04-15T15:51:45.987Z,9.27
2023-04-15T15:54:13.069Z,9.77
2023-04-15T15:56:40.429Z,11.27
2023-04-15T15:59:07.310Z,11.35
2023-04-15T16:01:34.364Z,8.27
2023-04-15T16:04:01.483Z,8.60
2023-04-15T16:06:28.774Z,10.75
2023-04-15T16:08:55.867Z,14.93
2023-04-15T16:11:23.676Z,9.65
2023-04-15T16:13:51.054Z,10.75
2023-04-15T16:16:17.975Z,11.32
2023-04-15T16:18:44.950Z,18.02
2023-04-15T16:21:11.812Z,20.58
2023-04-15T16:23:38.836Z,19.55
2023-04-15T16:26:06.816Z,13.57
2023-04-15T16:28:33.600Z,14.45
2023-04-15T16:31:00.474Z,13.13
2023-04-15T16:33:27.354Z,15.15
2023-04-15T16:35:54.313Z,16.27
2023-04-15T16:38:21.157Z,10.82
2023-04-15T16:40:48.007Z,9.93
2023-04-15T16:43:14.973Z,8.85
2023-04-15T16:45:41.832Z,10.88
2023-04-15T16:48:08.634Z,9.77
2023-04-15T16:50:37.364Z,12.52
2023-04-15T16:53:04.236Z,14.43
2023-04-15T16:55:31.211Z,7.35
2023-04-15T16:58:02.135Z,6.47
2023-04-15T17:00:30.314Z,11.32
2023-04-15T17:02:57.486Z,13.75
2023-04-15T17:05:24.821Z,21.25
2023-04-15T17:07:51.696Z,13.10
2023-04-15T17:10:18.539Z,10.07
2023-04-15T17:12:45.501Z,12.18
2023-04-15T17:15:12.278Z,9.57
2023-04-15T17:17:39.276Z,9.25
2023-04-15T17:20:06.827Z,20.80
2023-04-15T17:22:33.739Z,11.98
2023-04-15T17:25:00.784Z,11.75
2023-04-15T17:27:28.884Z,16.33
2023-04-15T17:29:56.237Z,12.30
2023-04-15T17:32:23.998Z,13.45
2023-04-15T17:34:51.554Z,12.77
2023-04-15T17:37:18.736Z,15.80
2023-04-15T17:39:45.726Z,16.83
2023-04-15T17:42:12.955Z,25.90
2023-04-15T17:44:40.066Z,14.35
2023-04-15T17:47:07.335Z,18.20
2023-04-15T17:49:34.337Z,14.60
2023-04-15T17:52:01.591Z,14.52
2023-04-15T17:54:28.462Z,16.40
2023-04-15T17:56:56.762Z,21.90
2023-04-15T17:59:23.814Z,16.67
2023-04-15T18:01:50.766Z,13.10
2023-04-15T18:04:18.120Z,15.45
2023-04-15T18:06:45.230Z,13.45
2023-04-15T18:09:12.394Z,17.83
2023-04-15T18:11:40.110Z,14.43
2023-04-15T18:14:07.320Z,17.23
2023-04-15T18:16:34.606Z,23.50
2023-04-15T18:19:01.852Z,16.67
2023-04-15T18:21:28.671Z,13.45
2023-04-15T18:23:55.611Z,11.63
2023-04-15T18:26:22.445Z,13.63
2023-04-15T18:28:49.750Z,13.23
2023-04-15T18:31:16.986Z,15.13
2023-04-15T18:33:43.872Z,18.80
2023-04-15T18:36:10.939Z,17.75
2023-04-15T18:38:37.812Z,20.88
2023-04-15T18:41:05.555Z,18.77
2023-04-15T18:43:32.701Z,15.30
2023-04-15T18:46:01.828Z,14.68
2023-04-15T18:48:28.768Z,14.73
2023-04-15T18:50:58.346Z,18.05
2023-04-15T18:53:25.306Z,14.05
2023-04-15T18:55:52.097Z,23.80
2023-04-15T18:58:18.933Z,17.30
2023-04-15T19:00:45.883Z,17.92
2023-04-15T19:03:12.875Z,12.80
2023-04-15T19:05:40.076Z,15.55
2023-04-15T19:08:08.028Z,15.40
2023-04-15T19:10:35.616Z,21.58
2023-04-15T19:13:04.441Z,17.48
2023-04-15T19:15:31.787Z,19.48
2023-04-15T19:17:58.668Z,18.70
2023-04-15T19:20:25.816Z,23.75
2023-04-15T19:22:54.749Z,22.38
2023-04-15T19:25:21.608Z,20.67
2023-04-15T19:27:48.619Z,27.60
2023-04-15T19:30:16.452Z,19.52
2023-04-15T19:32:43.372Z,16.83
2023-04-15T19:35:11.680Z,25.23
2023-04-15T19:37:38.868Z,21.90
2023-04-15T19:40:06.451Z,26.70
2023-04-15T19:42:33.264Z,22.35
2023-04-15T19:45:00.418Z,29.42
2023-04-15T19:47:28.220Z,20.05
2023-04-15T19:49:55.218Z,23.13
2023-04-15T19:52:22.432Z,34.00
2023-04-15T19:54:49.313Z,29.13
2023-04-15T19:57:16.207Z,17.58
2023-04-15T19:59:43.043Z,33.65
2023-04-15T20:02:10.130Z,24.45
2023-04-15T20:04:37.095Z,17.27
2023-04-15T20:07:03.965Z,35.60
2023-04-15T20:09:30.849Z,26.58
2023-04-15T20:12:09.486Z,29.33
2023-04-15T20:14:44.491Z,21.98
2023-04-15T20:17:11.371Z,25.45
2023-04-15T20:19:38.313Z,37.22
2023-04-15T20:22:05.085Z,18.27
2023-04-15T20:24:31.873Z,22.98
2023-04-15T20:26:58.718Z,26.67
2023-04-15T20:29:25.562Z,35.00
2023-04-15T20:31:52.456Z,26.67
2023-04-15T20:34:19.327Z,29.30
2023-04-15T20:36:46.410Z,25.73
2023-04-15T20:39:13.567Z,21.70
2023-04-15T20:41:40.601Z,24.20
2023-04-15T20:44:07.434Z,25.48
2023-04-15T20:46:34.253Z,37.92
2023-04-15T20:49:01.056Z,33.83
2023-04-15T20:51:28.014Z,35.92
2023-04-15T20:53:55.708Z,26.10
2023-04-15T20:56:22.698Z,37.40
2023-04-15T20:58:49.519Z,20.90
2023-04-15T21:01:16.511Z,30.20
2023-04-15T21:03:43.450Z,35.08
2023-04-15T21:06:10.531Z,34.08
2023-04-15T21:08:37.370Z,28.95
2023-04-15T21:11:04.240Z,27.67
2023-04-15T21:13:31.115Z,34.63
2023-04-15T21:15:57.925Z,26.10
2023-04-15T21:18:24.820Z,24.90
2023-04-15T21:20:59.181Z,35.63
2023-04-15T21:25:52.968Z,30.92
2023-04-15T21:28:20.269Z,38.20
2023-04-15T21:30:47.250Z,30.70
2023-04-15T21:33:14.212Z,28.77
2023-04-15T21:35:41.275Z,24.75
2023-04-15T21:38:08.386Z,35.70
2023-04-15T21:40:40.256Z,39.53
2023-04-15T21:43:08.127Z,38.00
2023-04-15T21:45:35.705Z,38.88
2023-04-15T21:48:07.449Z,38.65
2023-04-15T21:50:39.174Z,30.77
2023-04-15T21:53:07.749Z,36.55
2023-04-15T21:55:35.061Z,31.40
2023-04-15T21:58:05.002Z,44.30
2023-04-15T22:00:32.203Z,47.72
2023-04-15T22:02:59.780Z,38.88
2023-04-15T22:58:23.569Z,47.28
2023-04-15T23:00:50.784Z,52.85
2023-04-15T23:03:17.797Z,49.33
2023-04-15T23:05:45.659Z,50.60
2023-04-15T23:08:12.719Z,53.28
2023-04-15T23:10:40.132Z,39.53
2023-04-15T23:13:06.939Z,59.38
2023-04-15T23:15:33.817Z,44.42
2023-04-15T23:18:02.043Z,43.47
2023-04-15T23:20:29.103Z,52.28
2023-04-15T23:22:55.924Z,38.42
2023-04-15T23:25:23.249Z,60.17
2023-04-15T23:27:50.071Z,36.63
2023-04-15T23:30:16.973Z,39.25
2023-04-15T23:32:43.863Z,60.42
2023-04-15T23:35:10.844Z,48.15
2023-04-15T23:37:37.716Z,38.78
2023-04-15T23:40:05.030Z,41.15
2023-04-15T23:42:31.843Z,41.72
2023-04-15T23:44:59.174Z,51.22
2023-04-15T23:47:26.241Z,49.25
2023-04-15T23:49:53.463Z,41.47
2023-04-15T23:52:20.282Z,42.85
2023-04-15T23:54:47.049Z,41.72
2023-04-15T23:57:13.894Z,43.65
2023-04-15T23:59:40.691Z,44.80
